sensor_id;sensor_type;location;lat;lon;timestamp;temperature;humidity
36800;DHT22;22752;51.960;5.886;2023-06-14T00:01:24;19.60;67.70
36800;DHT22;22752;51.960;5.886;2023-06-14T00:03:50;19.50;67.80
36800;DHT22;22752;51.960;5.886;2023-06-14T00:06:16;19.50;67.80
36800;DHT22;22752;51.960;5.886;2023-06-14T00:08:42;19.50;68.00
36800;DHT22;22752;51.960;5.886;2023-06-14T00:11:08;19.40;68.00
36800;DHT22;22752;51.960;5.886;2023-06-14T00:13:34;19.40;68.20
36800;DHT22;22752;51.960;5.886;2023-06-14T00:15:59;19.40;68.20
36800;DHT22;22752;51.960;5.886;2023-06-14T00:18:25;19.40;68.50
36800;DHT22;22752;51.960;5.886;2023-06-14T00:20:52;19.40;68.60
36800;DHT22;22752;51.960;5.886;2023-06-14T00:23:18;19.30;68.70
36800;DHT22;22752;51.960;5.886;2023-06-14T00:25:43;19.30;68.80
36800;DHT22;22752;51.960;5.886;2023-06-14T00:28:09;19.30;69.00
36800;DHT22;22752;51.960;5.886;2023-06-14T00:30:34;19.20;69.10
36800;DHT22;22752;51.960;5.886;2023-06-14T00:33:00;19.20;69.40
36800;DHT22;22752;51.960;5.886;2023-06-14T00:35:26;19.10;69.40
36800;DHT22;22752;51.960;5.886;2023-06-14T00:37:52;19.10;69.50
36800;DHT22;22752;51.960;5.886;2023-06-14T00:40:20;19.10;69.60
36800;DHT22;22752;51.960;5.886;2023-06-14T00:42:46;19.10;69.60
36800;DHT22;22752;51.960;5.886;2023-06-14T00:45:11;19.10;69.60
36800;DHT22;22752;51.960;5.886;2023-06-14T00:47:38;19.10;69.80
36800;DHT22;22752;51.960;5.886;2023-06-14T00:50:07;19.10;70.00
36800;DHT22;22752;51.960;5.886;2023-06-14T00:52:34;19.00;70.60
36800;DHT22;22752;51.960;5.886;2023-06-14T00:55:00;19.00;70.20
36800;DHT22;22752;51.960;5.886;2023-06-14T00:57:26;18.90;70.30
36800;DHT22;22752;51.960;5.886;2023-06-14T00:59:52;18.90;70.50
36800;DHT22;22752;51.960;5.886;2023-06-14T01:02:20;18.90;70.60
36800;DHT22;22752;51.960;5.886;2023-06-14T01:04:47;18.90;70.40
36800;DHT22;22752;51.960;5.886;2023-06-14T01:10:34;18.90;70.40
36800;DHT22;22752;51.960;5.886;2023-06-14T01:13:08;18.90;70.30
36800;DHT22;22752;51.960;5.886;2023-06-14T01:15:37;18.90;70.60
36800;DHT22;22752;51.960;5.886;2023-06-14T01:18:03;18.90;70.90
36800;DHT22;22752;51.960;5.886;2023-06-14T01:20:31;18.80;71.00
36800;DHT22;22752;51.960;5.886;2023-06-14T01:22:58;18.80;71.00
36800;DHT22;22752;51.960;5.886;2023-06-14T01:25:24;18.70;71.10
36800;DHT22;22752;51.960;5.886;2023-06-14T01:30:23;18.70;71.40
36800;DHT22;22752;51.960;5.886;2023-06-14T01:32:51;18.70;71.60
36800;DHT22;22752;51.960;5.886;2023-06-14T01:35:17;18.60;71.60
36800;DHT22;22752;51.960;5.886;2023-06-14T01:37:44;18.60;71.90
36800;DHT22;22752;51.960;5.886;2023-06-14T01:40:11;18.50;72.00
36800;DHT22;22752;51.960;5.886;2023-06-14T01:42:38;18.50;72.00
36800;DHT22;22752;51.960;5.886;2023-06-14T01:45:05;18.50;72.30
36800;DHT22;22752;51.960;5.886;2023-06-14T01:47:32;18.50;72.40
36800;DHT22;22752;51.960;5.886;2023-06-14T01:49:58;18.40;72.50
36800;DHT22;22752;51.960;5.886;2023-06-14T01:52:24;18.40;72.50
36800;DHT22;22752;51.960;5.886;2023-06-14T01:54:50;18.40;72.50
36800;DHT22;22752;51.960;5.886;2023-06-14T01:57:16;18.40;72.50
36800;DHT22;22752;51.960;5.886;2023-06-14T01:59:42;18.40;72.70
36800;DHT22;22752;51.960;5.886;2023-06-14T02:02:07;18.30;72.80
36800;DHT22;22752;51.960;5.886;2023-06-14T02:04:33;18.30;72.90
36800;DHT22;22752;51.960;5.886;2023-06-14T02:06:59;18.30;73.00
36800;DHT22;22752;51.960;5.886;2023-06-14T02:09:25;18.30;73.00
36800;DHT22;22752;51.960;5.886;2023-06-14T02:11:51;18.30;73.20
36800;DHT22;22752;51.960;5.886;2023-06-14T02:14:17;18.30;73.20
36800;DHT22;22752;51.960;5.886;2023-06-14T02:16:43;18.20;73.30
36800;DHT22;22752;51.960;5.886;2023-06-14T02:19:18;18.20;73.50
36800;DHT22;22752;51.960;5.886;2023-06-14T02:21:45;18.20;73.70
36800;DHT22;22752;51.960;5.886;2023-06-14T02:24:10;18.10;73.80
36800;DHT22;22752;51.960;5.886;2023-06-14T02:26:37;18.10;73.90
36800;DHT22;22752;51.960;5.886;2023-06-14T02:29:04;18.00;74.00
36800;DHT22;22752;51.960;5.886;2023-06-14T02:31:35;18.00;74.20
36800;DHT22;22752;51.960;5.886;2023-06-14T02:34:00;18.00;74.30
36800;DHT22;22752;51.960;5.886;2023-06-14T02:36:26;17.90;74.40
36800;DHT22;22752;51.960;5.886;2023-06-14T02:38:52;17.90;74.60
36800;DHT22;22752;51.960;5.886;2023-06-14T02:41:19;17.80;74.80
36800;DHT22;22752;51.960;5.886;2023-06-14T02:43:45;17.80;75.00
36800;DHT22;22752;51.960;5.886;2023-06-14T02:46:10;17.70;75.10
36800;DHT22;22752;51.960;5.886;2023-06-14T02:48:36;17.70;75.30
36800;DHT22;22752;51.960;5.886;2023-06-14T02:51:02;17.70;75.30
36800;DHT22;22752;51.960;5.886;2023-06-14T02:53:28;17.70;75.40
36800;DHT22;22752;51.960;5.886;2023-06-14T02:55:53;17.60;75.40
36800;DHT22;22752;51.960;5.886;2023-06-14T02:58:21;17.60;75.60
36800;DHT22;22752;51.960;5.886;2023-06-14T03:00:46;17.60;75.80
36800;DHT22;22752;51.960;5.886;2023-06-14T03:03:12;17.60;75.80
36800;DHT22;22752;51.960;5.886;2023-06-14T03:05:44;17.50;75.90
36800;DHT22;22752;51.960;5.886;2023-06-14T03:08:13;17.50;76.10
36800;DHT22;22752;51.960;5.886;2023-06-14T03:10:45;17.50;76.20
36800;DHT22;22752;51.960;5.886;2023-06-14T03:13:11;17.40;76.30
36800;DHT22;22752;51.960;5.886;2023-06-14T03:15:37;17.40;76.40
36800;DHT22;22752;51.960;5.886;2023-06-14T03:18:04;17.40;76.40
36800;DHT22;22752;51.960;5.886;2023-06-14T03:20:30;17.50;76.40
36800;DHT22;22752;51.960;5.886;2023-06-14T03:22:59;17.50;76.40
36800;DHT22;22752;51.960;5.886;2023-06-14T03:25:25;17.50;76.50
36800;DHT22;22752;51.960;5.886;2023-06-14T03:27:51;17.50;76.80
36800;DHT22;22752;51.960;5.886;2023-06-14T03:30:17;17.40;76.80
36800;DHT22;22752;51.960;5.886;2023-06-14T03:32:42;17.40;76.70
36800;DHT22;22752;51.960;5.886;2023-06-14T03:35:08;17.50;76.90
36800;DHT22;22752;51.960;5.886;2023-06-14T03:37:42;17.40;77.10
36800;DHT22;22752;51.960;5.886;2023-06-14T03:40:08;17.40;77.20
36800;DHT22;22752;51.960;5.886;2023-06-14T03:42:34;17.40;77.30
36800;DHT22;22752;51.960;5.886;2023-06-14T03:45:00;17.40;77.30
36800;DHT22;22752;51.960;5.886;2023-06-14T03:47:25;17.40;77.30
36800;DHT22;22752;51.960;5.886;2023-06-14T03:49:52;17.40;77.40
36800;DHT22;22752;51.960;5.886;2023-06-14T03:52:18;17.40;77.50
36800;DHT22;22752;51.960;5.886;2023-06-14T03:54:43;17.40;77.50
36800;DHT22;22752;51.960;5.886;2023-06-14T03:57:10;17.30;77.60
36800;DHT22;22752;51.960;5.886;2023-06-14T03:59:36;17.40;78.10
36800;DHT22;22752;51.960;5.886;2023-06-14T04:02:02;17.30;78.00
36800;DHT22;22752;51.960;5.886;2023-06-14T04:04:28;17.40;77.80
36800;DHT22;22752;51.960;5.886;2023-06-14T04:06:55;17.40;78.10
36800;DHT22;22752;51.960;5.886;2023-06-14T04:09:23;17.40;78.00
36800;DHT22;22752;51.960;5.886;2023-06-14T04:11:51;17.50;77.90
36800;DHT22;22752;51.960;5.886;2023-06-14T04:14:18;17.60;78.10
36800;DHT22;22752;51.960;5.886;2023-06-14T04:16:43;17.60;78.10
36800;DHT22;22752;51.960;5.886;2023-06-14T04:19:09;17.70;77.80
36800;DHT22;22752;51.960;5.886;2023-06-14T04:21:35;17.80;77.50
36800;DHT22;22752;51.960;5.886;2023-06-14T04:24:01;17.80;77.50
36800;DHT22;22752;51.960;5.886;2023-06-14T04:26:27;17.90;77.50
36800;DHT22;22752;51.960;5.886;2023-06-14T04:28:57;18.10;77.10
36800;DHT22;22752;51.960;5.886;2023-06-14T04:31:28;18.30;77.10
36800;DHT22;22752;51.960;5.886;2023-06-14T04:33:55;18.40;76.50
36800;DHT22;22752;51.960;5.886;2023-06-14T04:36:21;18.60;76.30
36800;DHT22;22752;51.960;5.886;2023-06-14T04:38:47;18.80;75.70
36800;DHT22;22752;51.960;5.886;2023-06-14T04:41:14;19.20;74.90
36800;DHT22;22752;51.960;5.886;2023-06-14T04:43:41;19.80;74.20
36800;DHT22;22752;51.960;5.886;2023-06-14T04:46:08;20.20;73.00
36800;DHT22;22752;51.960;5.886;2023-06-14T04:48:35;20.40;72.10
36800;DHT22;22752;51.960;5.886;2023-06-14T04:51:01;20.70;71.60
36800;DHT22;22752;51.960;5.886;2023-06-14T04:53:29;20.90;71.20
36800;DHT22;22752;51.960;5.886;2023-06-14T04:55:55;21.20;70.90
36800;DHT22;22752;51.960;5.886;2023-06-14T04:58:20;21.50;70.70
36800;DHT22;22752;51.960;5.886;2023-06-14T05:00:46;21.80;69.60
36800;DHT22;22752;51.960;5.886;2023-06-14T05:03:12;22.00;68.80
36800;DHT22;22752;51.960;5.886;2023-06-14T05:05:39;22.00;68.70
36800;DHT22;22752;51.960;5.886;2023-06-14T05:08:05;22.10;68.90
36800;DHT22;22752;51.960;5.886;2023-06-14T05:10:31;22.30;69.00
36800;DHT22;22752;51.960;5.886;2023-06-14T05:12:56;22.50;68.50
36800;DHT22;22752;51.960;5.886;2023-06-14T05:15:22;22.60;67.60
36800;DHT22;22752;51.960;5.886;2023-06-14T05:17:51;22.70;67.90
36800;DHT22;22752;51.960;5.886;2023-06-14T05:20:24;22.80;67.90
36800;DHT22;22752;51.960;5.886;2023-06-14T05:22:51;22.90;67.70
36800;DHT22;22752;51.960;5.886;2023-06-14T05:25:21;23.20;67.60
36800;DHT22;22752;51.960;5.886;2023-06-14T05:27:47;23.30;67.50
36800;DHT22;22752;51.960;5.886;2023-06-14T05:30:14;23.50;66.50
36800;DHT22;22752;51.960;5.886;2023-06-14T05:32:40;23.50;66.10
36800;DHT22;22752;51.960;5.886;2023-06-14T05:35:07;23.60;66.80
36800;DHT22;22752;51.960;5.886;2023-06-14T05:37:32;23.70;66.40
36800;DHT22;22752;51.960;5.886;2023-06-14T05:39:58;23.90;65.80
36800;DHT22;22752;51.960;5.886;2023-06-14T05:42:24;24.00;65.70
36800;DHT22;22752;51.960;5.886;2023-06-14T05:44:49;24.10;66.00
36800;DHT22;22752;51.960;5.886;2023-06-14T05:47:15;24.20;65.80
36800;DHT22;22752;51.960;5.886;2023-06-14T05:49:41;24.40;65.90
36800;DHT22;22752;51.960;5.886;2023-06-14T05:52:07;24.40;65.50
36800;DHT22;22752;51.960;5.886;2023-06-14T05:54:33;24.60;65.70
36800;DHT22;22752;51.960;5.886;2023-06-14T05:56:58;24.90;65.60
36800;DHT22;22752;51.960;5.886;2023-06-14T05:59:29;25.10;65.00
36800;DHT22;22752;51.960;5.886;2023-06-14T06:01:55;25.40;64.90
36800;DHT22;22752;51.960;5.886;2023-06-14T06:04:20;25.60;64.00
36800;DHT22;22752;51.960;5.886;2023-06-14T06:06:46;25.50;63.20
36800;DHT22;22752;51.960;5.886;2023-06-14T06:09:13;25.40;63.60
36800;DHT22;22752;51.960;5.886;2023-06-14T06:11:40;25.30;64.60
36800;DHT22;22752;51.960;5.886;2023-06-14T06:14:05;25.40;63.60
36800;DHT22;22752;51.960;5.886;2023-06-14T06:16:31;25.20;64.00
36800;DHT22;22752;51.960;5.886;2023-06-14T06:18:57;25.30;64.50
36800;DHT22;22752;51.960;5.886;2023-06-14T06:21:22;25.40;63.80
36800;DHT22;22752;51.960;5.886;2023-06-14T06:23:48;25.40;63.90
36800;DHT22;22752;51.960;5.886;2023-06-14T06:26:14;25.50;63.80
36800;DHT22;22752;51.960;5.886;2023-06-14T06:28:39;25.60;64.70
36800;DHT22;22752;51.960;5.886;2023-06-14T06:31:05;25.80;63.80
36800;DHT22;22752;51.960;5.886;2023-06-14T06:33:31;25.80;64.60
36800;DHT22;22752;51.960;5.886;2023-06-14T06:35:57;26.20;64.00
36800;DHT22;22752;51.960;5.886;2023-06-14T06:38:22;26.20;62.50
36800;DHT22;22752;51.960;5.886;2023-06-14T06:40:48;26.30;62.60
36800;DHT22;22752;51.960;5.886;2023-06-14T06:43:13;26.60;62.70
36800;DHT22;22752;51.960;5.886;2023-06-14T06:45:42;26.70;62.10
36800;DHT22;22752;51.960;5.886;2023-06-14T06:48:08;26.70;61.60
36800;DHT22;22752;51.960;5.886;2023-06-14T06:50:36;26.30;62.10
36800;DHT22;22752;51.960;5.886;2023-06-14T06:53:02;26.40;63.40
36800;DHT22;22752;51.960;5.886;2023-06-14T06:55:28;26.50;62.10
36800;DHT22;22752;51.960;5.886;2023-06-14T06:57:53;26.60;61.40
36800;DHT22;22752;51.960;5.886;2023-06-14T07:00:20;26.50;61.90
36800;DHT22;22752;51.960;5.886;2023-06-14T07:02:46;26.50;62.00
36800;DHT22;22752;51.960;5.886;2023-06-14T07:05:12;26.60;62.00
36800;DHT22;22752;51.960;5.886;2023-06-14T07:07:38;26.60;61.80
36800;DHT22;22752;51.960;5.886;2023-06-14T07:10:04;26.60;61.40
36800;DHT22;22752;51.960;5.886;2023-06-14T07:12:31;26.60;62.50
36800;DHT22;22752;51.960;5.886;2023-06-14T07:14:59;26.80;62.90
36800;DHT22;22752;51.960;5.886;2023-06-14T07:17:25;27.30;62.70
36800;DHT22;22752;51.960;5.886;2023-06-14T07:19:51;27.30;60.60
36800;DHT22;22752;51.960;5.886;2023-06-14T07:22:16;27.20;61.40
36800;DHT22;22752;51.960;5.886;2023-06-14T07:24:43;27.10;60.80
36800;DHT22;22752;51.960;5.886;2023-06-14T07:27:09;27.10;61.20
36800;DHT22;22752;51.960;5.886;2023-06-14T07:29:36;27.20;61.30
36800;DHT22;22752;51.960;5.886;2023-06-14T07:32:01;27.20;60.50
36800;DHT22;22752;51.960;5.886;2023-06-14T07:34:27;27.10;60.30
36800;DHT22;22752;51.960;5.886;2023-06-14T07:36:53;27.30;62.20
36800;DHT22;22752;51.960;5.886;2023-06-14T07:39:19;27.40;60.00
36800;DHT22;22752;51.960;5.886;2023-06-14T07:41:45;27.40;60.80
36800;DHT22;22752;51.960;5.886;2023-06-14T07:44:11;27.50;60.50
36800;DHT22;22752;51.960;5.886;2023-06-14T07:46:38;27.50;60.10
36800;DHT22;22752;51.960;5.886;2023-06-14T07:49:03;27.60;60.30
36800;DHT22;22752;51.960;5.886;2023-06-14T07:51:29;27.90;61.00
36800;DHT22;22752;51.960;5.886;2023-06-14T07:53:55;28.10;60.30
36800;DHT22;22752;51.960;5.886;2023-06-14T07:56:21;28.20;60.20
36800;DHT22;22752;51.960;5.886;2023-06-14T07:58:48;28.40;60.40
36800;DHT22;22752;51.960;5.886;2023-06-14T08:01:14;28.60;59.60
36800;DHT22;22752;51.960;5.886;2023-06-14T08:03:40;28.60;58.30
36800;DHT22;22752;51.960;5.886;2023-06-14T08:06:06;28.80;59.40
36800;DHT22;22752;51.960;5.886;2023-06-14T08:08:32;28.90;58.10
36800;DHT22;22752;51.960;5.886;2023-06-14T08:10:58;29.00;57.90
36800;DHT22;22752;51.960;5.886;2023-06-14T08:13:24;28.70;57.70
36800;DHT22;22752;51.960;5.886;2023-06-14T08:15:49;28.40;57.40
36800;DHT22;22752;51.960;5.886;2023-06-14T08:18:15;28.20;56.30
36800;DHT22;22752;51.960;5.886;2023-06-14T08:20:41;28.10;58.50
36800;DHT22;22752;51.960;5.886;2023-06-14T08:23:07;28.20;57.50
36800;DHT22;22752;51.960;5.886;2023-06-14T08:25:33;28.10;57.40
36800;DHT22;22752;51.960;5.886;2023-06-14T08:27:59;28.30;57.60
36800;DHT22;22752;51.960;5.886;2023-06-14T08:30:25;28.50;57.40
36800;DHT22;22752;51.960;5.886;2023-06-14T08:32:51;28.50;57.30
36800;DHT22;22752;51.960;5.886;2023-06-14T08:35:17;28.40;57.70
36800;DHT22;22752;51.960;5.886;2023-06-14T08:37:43;28.40;59.00
36800;DHT22;22752;51.960;5.886;2023-06-14T08:40:22;28.40;57.90
36800;DHT22;22752;51.960;5.886;2023-06-14T08:42:50;28.30;57.70
36800;DHT22;22752;51.960;5.886;2023-06-14T08:45:16;28.40;57.80
36800;DHT22;22752;51.960;5.886;2023-06-14T08:47:42;28.60;57.50
36800;DHT22;22752;51.960;5.886;2023-06-14T08:50:09;28.50;56.90
36800;DHT22;22752;51.960;5.886;2023-06-14T08:52:38;28.40;56.70
36800;DHT22;22752;51.960;5.886;2023-06-14T08:55:11;28.30;56.50
36800;DHT22;22752;51.960;5.886;2023-06-14T08:57:38;28.20;57.00
36800;DHT22;22752;51.960;5.886;2023-06-14T09:00:05;28.30;57.40
36800;DHT22;22752;51.960;5.886;2023-06-14T09:02:37;28.40;57.70
36800;DHT22;22752;51.960;5.886;2023-06-14T09:05:03;28.30;57.80
36800;DHT22;22752;51.960;5.886;2023-06-14T09:07:29;28.00;58.30
36800;DHT22;22752;51.960;5.886;2023-06-14T09:10:13;27.40;57.70
36800;DHT22;22752;51.960;5.886;2023-06-14T09:12:39;26.80;57.80
36800;DHT22;22752;51.960;5.886;2023-06-14T09:15:05;26.20;59.20
36800;DHT22;22752;51.960;5.886;2023-06-14T09:17:36;25.90;60.40
36800;DHT22;22752;51.960;5.886;2023-06-14T09:20:07;25.80;61.40
36800;DHT22;22752;51.960;5.886;2023-06-14T09:22:37;25.90;61.70
36800;DHT22;22752;51.960;5.886;2023-06-14T09:25:03;26.00;61.60
36800;DHT22;22752;51.960;5.886;2023-06-14T09:27:30;26.00;61.30
36800;DHT22;22752;51.960;5.886;2023-06-14T09:29:56;26.00;62.60
36800;DHT22;22752;51.960;5.886;2023-06-14T09:32:22;25.80;59.50
36800;DHT22;22752;51.960;5.886;2023-06-14T09:34:48;25.50;59.70
36800;DHT22;22752;51.960;5.886;2023-06-14T09:37:29;25.30;60.90
36800;DHT22;22752;51.960;5.886;2023-06-14T09:39:55;25.30;59.60
36800;DHT22;22752;51.960;5.886;2023-06-14T09:42:22;25.10;61.70
36800;DHT22;22752;51.960;5.886;2023-06-14T09:44:51;25.30;62.30
36800;DHT22;22752;51.960;5.886;2023-06-14T09:47:18;25.50;61.60
36800;DHT22;22752;51.960;5.886;2023-06-14T09:49:44;25.60;61.50
36800;DHT22;22752;51.960;5.886;2023-06-14T09:52:18;25.50;61.90
36800;DHT22;22752;51.960;5.886;2023-06-14T09:54:46;25.50;61.70
36800;DHT22;22752;51.960;5.886;2023-06-14T09:57:14;25.40;62.00
36800;DHT22;22752;51.960;5.886;2023-06-14T09:59:44;25.40;62.50
36800;DHT22;22752;51.960;5.886;2023-06-14T10:02:34;25.40;62.70
36800;DHT22;22752;51.960;5.886;2023-06-14T10:07:30;25.50;60.70
36800;DHT22;22752;51.960;5.886;2023-06-14T10:09:57;25.40;60.30
36800;DHT22;22752;51.960;5.886;2023-06-14T10:12:23;25.20;59.90
36800;DHT22;22752;51.960;5.886;2023-06-14T10:14:51;25.10;60.20
36800;DHT22;22752;51.960;5.886;2023-06-14T10:17:42;25.00;60.50
36800;DHT22;22752;51.960;5.886;2023-06-14T10:20:35;25.00;60.90
36800;DHT22;22752;51.960;5.886;2023-06-14T10:23:23;25.00;61.00
36800;DHT22;22752;51.960;5.886;2023-06-14T10:25:58;25.10;61.80
36800;DHT22;22752;51.960;5.886;2023-06-14T10:28:26;25.20;62.10
36800;DHT22;22752;51.960;5.886;2023-06-14T10:31:18;25.30;61.90
36800;DHT22;22752;51.960;5.886;2023-06-14T10:33:56;25.30;62.60
36800;DHT22;22752;51.960;5.886;2023-06-14T10:39:20;25.40;60.50
36800;DHT22;22752;51.960;5.886;2023-06-14T10:41:56;25.50;61.80
36800;DHT22;22752;51.960;5.886;2023-06-14T10:46:49;25.40;60.60
36800;DHT22;22752;51.960;5.886;2023-06-14T10:49:43;25.20;60.30
36800;DHT22;22752;51.960;5.886;2023-06-14T10:52:13;25.20;61.10
36800;DHT22;22752;51.960;5.886;2023-06-14T10:55:01;25.20;60.50
36800;DHT22;22752;51.960;5.886;2023-06-14T10:57:29;25.30;60.90
36800;DHT22;22752;51.960;5.886;2023-06-14T10:59:58;25.30;58.70
36800;DHT22;22752;51.960;5.886;2023-06-14T11:05:09;25.10;60.70
36800;DHT22;22752;51.960;5.886;2023-06-14T11:10:48;25.20;60.10
36800;DHT22;22752;51.960;5.886;2023-06-14T11:13:16;25.00;60.40
36800;DHT22;22752;51.960;5.886;2023-06-14T11:15:47;24.90;59.90
36800;DHT22;22752;51.960;5.886;2023-06-14T11:18:13;24.90;60.70
36800;DHT22;22752;51.960;5.886;2023-06-14T11:20:39;24.90;60.70
36800;DHT22;22752;51.960;5.886;2023-06-14T11:23:05;24.90;60.90
36800;DHT22;22752;51.960;5.886;2023-06-14T11:25:31;24.80;61.50
36800;DHT22;22752;51.960;5.886;2023-06-14T11:27:57;24.80;60.70
36800;DHT22;22752;51.960;5.886;2023-06-14T11:30:24;24.90;62.00
36800;DHT22;22752;51.960;5.886;2023-06-14T11:32:52;25.00;61.50
36800;DHT22;22752;51.960;5.886;2023-06-14T11:35:19;25.10;61.90
36800;DHT22;22752;51.960;5.886;2023-06-14T11:37:47;25.00;60.70
36800;DHT22;22752;51.960;5.886;2023-06-14T11:40:14;24.80;60.80
36800;DHT22;22752;51.960;5.886;2023-06-14T11:42:41;24.70;60.00
36800;DHT22;22752;51.960;5.886;2023-06-14T11:45:08;24.60;60.70
36800;DHT22;22752;51.960;5.886;2023-06-14T11:47:35;24.70;61.30
36800;DHT22;22752;51.960;5.886;2023-06-14T11:50:05;24.70;62.20
36800;DHT22;22752;51.960;5.886;2023-06-14T11:52:31;24.80;61.30
36800;DHT22;22752;51.960;5.886;2023-06-14T11:54:57;24.90;62.00
36800;DHT22;22752;51.960;5.886;2023-06-14T11:57:24;25.00;62.20
36800;DHT22;22752;51.960;5.886;2023-06-14T11:59:50;25.10;62.00
36800;DHT22;22752;51.960;5.886;2023-06-14T12:02:16;25.10;60.90
36800;DHT22;22752;51.960;5.886;2023-06-14T12:04:48;25.00;61.50
36800;DHT22;22752;51.960;5.886;2023-06-14T12:07:15;25.10;62.50
36800;DHT22;22752;51.960;5.886;2023-06-14T12:09:43;25.10;60.80
36800;DHT22;22752;51.960;5.886;2023-06-14T12:12:35;25.00;60.90
36800;DHT22;22752;51.960;5.886;2023-06-14T12:15:07;25.00;62.00
36800;DHT22;22752;51.960;5.886;2023-06-14T12:17:33;25.00;61.10
36800;DHT22;22752;51.960;5.886;2023-06-14T12:20:11;25.00;60.60
36800;DHT22;22752;51.960;5.886;2023-06-14T12:22:46;25.00;60.20
36800;DHT22;22752;51.960;5.886;2023-06-14T12:25:27;25.10;62.10
36800;DHT22;22752;51.960;5.886;2023-06-14T12:27:56;25.00;61.90
36800;DHT22;22752;51.960;5.886;2023-06-14T12:30:22;25.00;62.30
36800;DHT22;22752;51.960;5.886;2023-06-14T12:32:47;25.00;62.00
36800;DHT22;22752;51.960;5.886;2023-06-14T12:35:14;25.00;63.00
36800;DHT22;22752;51.960;5.886;2023-06-14T12:37:40;25.00;62.20
36800;DHT22;22752;51.960;5.886;2023-06-14T12:40:06;24.90;63.10
36800;DHT22;22752;51.960;5.886;2023-06-14T12:42:33;24.90;62.40
36800;DHT22;22752;51.960;5.886;2023-06-14T12:44:59;24.80;62.30
36800;DHT22;22752;51.960;5.886;2023-06-14T12:47:25;24.80;63.20
36800;DHT22;22752;51.960;5.886;2023-06-14T12:49:51;24.80;63.10
36800;DHT22;22752;51.960;5.886;2023-06-14T12:52:16;24.90;62.90
36800;DHT22;22752;51.960;5.886;2023-06-14T12:54:42;24.90;63.80
36800;DHT22;22752;51.960;5.886;2023-06-14T12:57:08;25.10;64.20
36800;DHT22;22752;51.960;5.886;2023-06-14T12:59:35;25.10;63.50
36800;DHT22;22752;51.960;5.886;2023-06-14T13:02:17;25.00;63.90
36800;DHT22;22752;51.960;5.886;2023-06-14T13:04:43;25.10;64.10
36800;DHT22;22752;51.960;5.886;2023-06-14T13:07:09;25.20;62.60
36800;DHT22;22752;51.960;5.886;2023-06-14T13:09:36;25.30;62.90
36800;DHT22;22752;51.960;5.886;2023-06-14T13:12:02;25.30;63.40
36800;DHT22;22752;51.960;5.886;2023-06-14T13:14:28;25.30;63.00
36800;DHT22;22752;51.960;5.886;2023-06-14T13:16:54;25.30;61.70
36800;DHT22;22752;51.960;5.886;2023-06-14T13:19:20;25.30;60.40
36800;DHT22;22752;51.960;5.886;2023-06-14T13:21:46;25.30;60.40
36800;DHT22;22752;51.960;5.886;2023-06-14T13:24:12;25.40;61.00
36800;DHT22;22752;51.960;5.886;2023-06-14T13:26:37;25.40;61.30
36800;DHT22;22752;51.960;5.886;2023-06-14T13:29:03;25.60;61.70
36800;DHT22;22752;51.960;5.886;2023-06-14T13:31:29;25.50;60.00
36800;DHT22;22752;51.960;5.886;2023-06-14T13:33:55;25.30;60.20
36800;DHT22;22752;51.960;5.886;2023-06-14T13:36:20;25.30;59.90
36800;DHT22;22752;51.960;5.886;2023-06-14T13:38:46;25.30;60.40
36800;DHT22;22752;51.960;5.886;2023-06-14T13:41:12;25.20;60.10
36800;DHT22;22752;51.960;5.886;2023-06-14T13:43:37;25.20;60.90
36800;DHT22;22752;51.960;5.886;2023-06-14T13:46:03;25.20;61.10
36800;DHT22;22752;51.960;5.886;2023-06-14T13:48:29;25.30;60.20
36800;DHT22;22752;51.960;5.886;2023-06-14T13:50:54;25.30;60.40
36800;DHT22;22752;51.960;5.886;2023-06-14T13:53:20;25.50;60.30
36800;DHT22;22752;51.960;5.886;2023-06-14T13:55:45;25.50;59.90
36800;DHT22;22752;51.960;5.886;2023-06-14T13:58:11;25.50;60.70
36800;DHT22;22752;51.960;5.886;2023-06-14T14:00:37;25.60;59.80
36800;DHT22;22752;51.960;5.886;2023-06-14T14:03:06;25.70;59.20
36800;DHT22;22752;51.960;5.886;2023-06-14T14:05:32;25.60;59.70
36800;DHT22;22752;51.960;5.886;2023-06-14T14:07:58;25.40;59.20
36800;DHT22;22752;51.960;5.886;2023-06-14T14:10:24;25.30;60.80
36800;DHT22;22752;51.960;5.886;2023-06-14T14:12:51;25.30;61.00
36800;DHT22;22752;51.960;5.886;2023-06-14T14:15:17;25.30;61.60
36800;DHT22;22752;51.960;5.886;2023-06-14T14:17:42;25.40;61.40
36800;DHT22;22752;51.960;5.886;2023-06-14T14:20:09;25.40;61.40
36800;DHT22;22752;51.960;5.886;2023-06-14T14:22:35;25.50;60.30
36800;DHT22;22752;51.960;5.886;2023-06-14T14:25:01;25.40;61.00
36800;DHT22;22752;51.960;5.886;2023-06-14T14:27:26;25.50;61.30
36800;DHT22;22752;51.960;5.886;2023-06-14T14:29:52;25.60;60.70
36800;DHT22;22752;51.960;5.886;2023-06-14T14:32:18;25.50;60.20
36800;DHT22;22752;51.960;5.886;2023-06-14T14:34:44;25.50;61.40
36800;DHT22;22752;51.960;5.886;2023-06-14T14:37:10;25.50;60.70
36800;DHT22;22752;51.960;5.886;2023-06-14T14:39:36;25.40;60.50
36800;DHT22;22752;51.960;5.886;2023-06-14T14:42:02;25.40;61.00
36800;DHT22;22752;51.960;5.886;2023-06-14T14:44:28;25.30;60.40
36800;DHT22;22752;51.960;5.886;2023-06-14T14:46:53;25.30;60.70
36800;DHT22;22752;51.960;5.886;2023-06-14T14:49:19;25.20;60.80
36800;DHT22;22752;51.960;5.886;2023-06-14T14:51:46;25.10;61.00
36800;DHT22;22752;51.960;5.886;2023-06-14T14:54:13;25.10;61.10
36800;DHT22;22752;51.960;5.886;2023-06-14T14:56:41;25.10;61.40
36800;DHT22;22752;51.960;5.886;2023-06-14T14:59:07;25.00;62.40
36800;DHT22;22752;51.960;5.886;2023-06-14T15:01:33;25.10;60.90
36800;DHT22;22752;51.960;5.886;2023-06-14T15:03:59;25.00;61.10
36800;DHT22;22752;51.960;5.886;2023-06-14T15:06:24;24.90;61.20
36800;DHT22;22752;51.960;5.886;2023-06-14T15:08:50;24.90;61.90
36800;DHT22;22752;51.960;5.886;2023-06-14T15:11:16;25.00;61.80
36800;DHT22;22752;51.960;5.886;2023-06-14T15:13:42;25.00;62.00
36800;DHT22;22752;51.960;5.886;2023-06-14T15:16:07;24.90;61.20
36800;DHT22;22752;51.960;5.886;2023-06-14T15:18:33;24.90;61.50
36800;DHT22;22752;51.960;5.886;2023-06-14T15:20:58;24.90;61.40
36800;DHT22;22752;51.960;5.886;2023-06-14T15:23:24;24.90;61.40
36800;DHT22;22752;51.960;5.886;2023-06-14T15:25:50;24.90;62.00
36800;DHT22;22752;51.960;5.886;2023-06-14T15:28:17;24.90;62.00
36800;DHT22;22752;51.960;5.886;2023-06-14T15:30:43;24.90;61.60
36800;DHT22;22752;51.960;5.886;2023-06-14T15:33:08;24.80;62.60
36800;DHT22;22752;51.960;5.886;2023-06-14T15:35:34;24.90;61.80
36800;DHT22;22752;51.960;5.886;2023-06-14T15:38:00;24.90;62.80
36800;DHT22;22752;51.960;5.886;2023-06-14T15:40:25;24.90;61.40
36800;DHT22;22752;51.960;5.886;2023-06-14T15:42:52;24.90;61.40
36800;DHT22;22752;51.960;5.886;2023-06-14T15:45:17;24.90;61.90
36800;DHT22;22752;51.960;5.886;2023-06-14T15:47:43;24.80;61.40
36800;DHT22;22752;51.960;5.886;2023-06-14T15:50:09;24.90;61.50